Cape May Court House, NJ

5:39 PM EDT on October 20, 2014 (GMT -0400)
Easy St | Change Station
CLOSE
Current Station
Personal Weather Station
Location: South Dennis, NJ
Elevation: 36 ft
Nearby Weather Stations

Elev 36 ft 39.16 °N, 74.82 °W | Updated 2 minutes ago

Clear
Clear
61.8 °F
Feels Like 61.8 °F
N
0.0
Wind Variable Wind from North

Today
High -- | Low -- °F
--% Chance of Precip.
Yesterday
High -- | Low -- °F
Precip. -- in
7:14 AM 6:13 PM
Waning Crescent, 9% visible
Pressure 30.00 in
Visibility 10.0 miles
Clouds Clear
Dew Point 49 °F
Humidity 63%
Rainfall -999.00 in
Snow Depth Not available.
UV 0 out of 12
Pollen 1.40 out of 12
Air Quality Not available.
Flu Activity Sporadic
METAR KWWD 202135Z AUTO 18011KT 10SM CLR 17/06 A3000 RMK AO1

More Conditions Fewer Conditions

Pressure 30.00 in
Visibility 10.0 miles
Clouds Clear
Dew Point 49 °F
Humidity 63%
Rainfall -999.00 in
Snow Depth Not available.
UV 0 out of 12
Pollen 1.40 out of 12
Air Quality Not available.
Flu Activity Sporadic
METAR KWWD 202135Z AUTO 18011KT 10SM CLR 17/06 A3000 RMK AO1

More Conditions Fewer Conditions

10-Day Weather Forecast

Almanac

Astronomy

Oct. 20, 2014 Rise Set
Actual Time 7:14 AM EDT 6:13 PM EDT
Civil Twilight 6:46 AM EDT 6:40 PM EDT
Nautical Twilight 6:15 AM EDT 7:11 PM EDT
Astronomical Twilight 5:44 AM EDT 7:42 PM EDT
Moon 4:01 AM EDT 4:33 PM EDT
Length of Visible Light 11h 53m
Length of Day
10h 59m
Waning Crescent, 9% of the Moon is Illuminated
Today
Waning Crescent
Oct 23
New
Oct 30
First Quarter
Nov 6
Full
Nov 14
Last Quarter

Today's Extremes

State Highs State Lows

Community

WunderPhotos

Upload Photos

1,763,525 photos uploaded!

WunderBlogs® & News

Nearby

Snow Depth

Station Depth Elevation
No new snow has been reported.

Earthquake Activity

City Distance Mag. Time & Date
No recent earthquake activity has been reported nearby.
Minimum magnitude displayed is 2.5.

Coastal Water Temperatures

Place Temperature
Cape May, NJ 66.9 °F
Lewes, DE 61.0 °F
Ship John Shoal, NJ 64.0 °F

Nearby Weather Stations